sensor_id;sensor_type;location;lat;lon;timestamp;P1;durP1;ratioP1;P2;durP2;ratioP2
59147;SDS011;44930;52.878;6.168;2023-08-06T00:01:30;14.10;;;12.25;;
59147;SDS011;44930;52.878;6.168;2023-08-06T00:03:56;15.93;;;13.15;;
59147;SDS011;44930;52.878;6.168;2023-08-06T00:06:21;17.33;;;13.38;;
59147;SDS011;44930;52.878;6.168;2023-08-06T00:08:47;15.25;;;13.00;;
59147;SDS011;44930;52.878;6.168;2023-08-06T00:11:12;14.45;;;12.95;;
59147;SDS011;44930;52.878;6.168;2023-08-06T00:13:38;13.80;;;12.30;;
59147;SDS011;44930;52.878;6.168;2023-08-06T00:16:10;13.85;;;12.15;;
59147;SDS011;44930;52.878;6.168;2023-08-06T00:18:37;16.15;;;11.73;;
59147;SDS011;44930;52.878;6.168;2023-08-06T00:21:02;15.35;;;12.02;;
59147;SDS011;44930;52.878;6.168;2023-08-06T00:23:28;14.25;;;12.70;;
59147;SDS011;44930;52.878;6.168;2023-08-06T00:25:53;16.83;;;13.00;;
59147;SDS011;44930;52.878;6.168;2023-08-06T00:28:19;16.25;;;12.70;;
59147;SDS011;44930;52.878;6.168;2023-08-06T00:30:44;16.38;;;12.50;;
59147;SDS011;44930;52.878;6.168;2023-08-06T00:33:10;13.55;;;12.15;;
59147;SDS011;44930;52.878;6.168;2023-08-06T00:35:35;12.98;;;11.63;;
59147;SDS011;44930;52.878;6.168;2023-08-06T00:38:01;16.73;;;12.88;;
59147;SDS011;44930;52.878;6.168;2023-08-06T00:40:26;15.10;;;12.23;;
59147;SDS011;44930;52.878;6.168;2023-08-06T00:42:55;13.13;;;11.73;;
59147;SDS011;44930;52.878;6.168;2023-08-06T00:45:20;13.23;;;11.50;;
59147;SDS011;44930;52.878;6.168;2023-08-06T00:47:47;13.98;;;11.98;;
59147;SDS011;44930;52.878;6.168;2023-08-06T00:50:13;14.10;;;12.57;;
59147;SDS011;44930;52.878;6.168;2023-08-06T00:52:38;15.85;;;11.82;;
59147;SDS011;44930;52.878;6.168;2023-08-06T00:55:05;15.77;;;13.00;;
59147;SDS011;44930;52.878;6.168;2023-08-06T00:57:31;12.55;;;11.20;;
59147;SDS011;44930;52.878;6.168;2023-08-06T00:59:57;13.70;;;12.15;;
59147;SDS011;44930;52.878;6.168;2023-08-06T01:02:23;14.80;;;11.80;;
59147;SDS011;44930;52.878;6.168;2023-08-06T01:04:48;15.23;;;11.65;;
59147;SDS011;44930;52.878;6.168;2023-08-06T01:12:45;12.10;;;10.55;;
59147;SDS011;44930;52.878;6.168;2023-08-06T01:15:35;12.32;;;11.02;;
59147;SDS011;44930;52.878;6.168;2023-08-06T01:18:06;13.13;;;10.55;;
59147;SDS011;44930;52.878;6.168;2023-08-06T01:20:32;14.48;;;10.82;;
59147;SDS011;44930;52.878;6.168;2023-08-06T01:22:58;13.95;;;11.38;;
59147;SDS011;44930;52.878;6.168;2023-08-06T01:25:26;13.75;;;10.75;;
59147;SDS011;44930;52.878;6.168;2023-08-06T01:28:00;12.83;;;10.73;;
59147;SDS011;44930;52.878;6.168;2023-08-06T01:30:36;13.70;;;11.02;;
59147;SDS011;44930;52.878;6.168;2023-08-06T01:33:05;14.75;;;11.63;;
59147;SDS011;44930;52.878;6.168;2023-08-06T01:35:38;18.08;;;10.63;;
59147;SDS011;44930;52.878;6.168;2023-08-06T01:38:03;12.65;;;10.93;;
59147;SDS011;44930;52.878;6.168;2023-08-06T01:40:29;12.27;;;9.35;;
59147;SDS011;44930;52.878;6.168;2023-08-06T01:42:55;12.57;;;10.20;;
59147;SDS011;44930;52.878;6.168;2023-08-06T01:45:20;11.98;;;10.50;;
59147;SDS011;44930;52.878;6.168;2023-08-06T01:47:46;14.98;;;10.57;;
59147;SDS011;44930;52.878;6.168;2023-08-06T01:50:11;12.93;;;10.52;;
59147;SDS011;44930;52.878;6.168;2023-08-06T01:52:37;13.52;;;9.85;;
59147;SDS011;44930;52.878;6.168;2023-08-06T01:55:03;11.82;;;10.15;;
59147;SDS011;44930;52.878;6.168;2023-08-06T01:57:29;14.43;;;10.18;;
59147;SDS011;44930;52.878;6.168;2023-08-06T01:59:54;12.25;;;9.90;;
59147;SDS011;44930;52.878;6.168;2023-08-06T02:02:20;13.40;;;10.40;;
59147;SDS011;44930;52.878;6.168;2023-08-06T02:04:45;10.95;;;9.77;;
59147;SDS011;44930;52.878;6.168;2023-08-06T02:07:11;15.50;;;10.45;;
59147;SDS011;44930;52.878;6.168;2023-08-06T02:09:36;12.63;;;10.38;;
59147;SDS011;44930;52.878;6.168;2023-08-06T02:12:02;11.90;;;9.90;;
59147;SDS011;44930;52.878;6.168;2023-08-06T02:14:28;16.98;;;10.55;;
59147;SDS011;44930;52.878;6.168;2023-08-06T02:16:53;12.10;;;9.20;;
59147;SDS011;44930;52.878;6.168;2023-08-06T02:19:19;15.68;;;10.68;;
59147;SDS011;44930;52.878;6.168;2023-08-06T02:21:44;14.20;;;10.15;;
59147;SDS011;44930;52.878;6.168;2023-08-06T02:24:10;14.00;;;10.00;;
59147;SDS011;44930;52.878;6.168;2023-08-06T02:26:36;14.98;;;9.75;;
59147;SDS011;44930;52.878;6.168;2023-08-06T02:29:01;14.32;;;10.27;;
59147;SDS011;44930;52.878;6.168;2023-08-06T02:31:27;13.70;;;10.15;;
59147;SDS011;44930;52.878;6.168;2023-08-06T02:33:52;12.82;;;9.30;;
59147;SDS011;44930;52.878;6.168;2023-08-06T02:36:19;10.88;;;9.52;;
59147;SDS011;44930;52.878;6.168;2023-08-06T02:38:44;12.15;;;9.82;;
59147;SDS011;44930;52.878;6.168;2023-08-06T02:41:10;11.95;;;9.52;;
59147;SDS011;44930;52.878;6.168;2023-08-06T02:43:35;11.30;;;9.52;;
59147;SDS011;44930;52.878;6.168;2023-08-06T02:46:01;11.32;;;9.50;;
59147;SDS011;44930;52.878;6.168;2023-08-06T02:48:27;11.48;;;10.10;;
59147;SDS011;44930;52.878;6.168;2023-08-06T02:50:52;12.38;;;9.38;;
59147;SDS011;44930;52.878;6.168;2023-08-06T02:53:21;14.80;;;10.23;;
59147;SDS011;44930;52.878;6.168;2023-08-06T02:55:47;13.05;;;9.13;;
59147;SDS011;44930;52.878;6.168;2023-08-06T02:58:16;11.45;;;9.38;;
59147;SDS011;44930;52.878;6.168;2023-08-06T03:00:42;9.95;;;8.73;;
59147;SDS011;44930;52.878;6.168;2023-08-06T03:03:09;11.18;;;9.43;;
59147;SDS011;44930;52.878;6.168;2023-08-06T03:05:34;10.02;;;8.65;;
59147;SDS011;44930;52.878;6.168;2023-08-06T03:08:00;12.23;;;9.38;;
59147;SDS011;44930;52.878;6.168;2023-08-06T03:10:26;11.25;;;8.93;;
59147;SDS011;44930;52.878;6.168;2023-08-06T03:12:51;14.23;;;9.98;;
59147;SDS011;44930;52.878;6.168;2023-08-06T03:15:17;12.10;;;8.95;;
59147;SDS011;44930;52.878;6.168;2023-08-06T03:17:43;12.43;;;8.80;;
59147;SDS011;44930;52.878;6.168;2023-08-06T03:20:09;12.70;;;9.55;;
59147;SDS011;44930;52.878;6.168;2023-08-06T03:22:35;13.68;;;8.23;;
59147;SDS011;44930;52.878;6.168;2023-08-06T03:25:01;15.63;;;9.43;;
59147;SDS011;44930;52.878;6.168;2023-08-06T03:27:27;10.45;;;8.45;;
59147;SDS011;44930;52.878;6.168;2023-08-06T03:29:52;11.80;;;9.45;;
59147;SDS011;44930;52.878;6.168;2023-08-06T03:32:18;12.40;;;9.25;;
59147;SDS011;44930;52.878;6.168;2023-08-06T03:34:43;14.02;;;9.43;;
59147;SDS011;44930;52.878;6.168;2023-08-06T03:37:09;13.02;;;9.23;;
59147;SDS011;44930;52.878;6.168;2023-08-06T03:39:34;12.48;;;9.00;;
59147;SDS011;44930;52.878;6.168;2023-08-06T03:42:00;10.73;;;9.20;;
59147;SDS011;44930;52.878;6.168;2023-08-06T03:44:25;11.50;;;9.20;;
59147;SDS011;44930;52.878;6.168;2023-08-06T03:46:53;12.60;;;9.30;;
59147;SDS011;44930;52.878;6.168;2023-08-06T03:49:18;15.18;;;8.43;;
59147;SDS011;44930;52.878;6.168;2023-08-06T03:51:44;10.73;;;9.02;;
59147;SDS011;44930;52.878;6.168;2023-08-06T03:54:09;11.15;;;8.55;;
59147;SDS011;44930;52.878;6.168;2023-08-06T03:56:35;14.05;;;9.32;;
59147;SDS011;44930;52.878;6.168;2023-08-06T03:59:01;14.30;;;9.35;;
59147;SDS011;44930;52.878;6.168;2023-08-06T04:01:26;13.45;;;8.23;;
59147;SDS011;44930;52.878;6.168;2023-08-06T04:03:52;10.63;;;8.55;;
59147;SDS011;44930;52.878;6.168;2023-08-06T04:06:17;10.35;;;9.25;;
59147;SDS011;44930;52.878;6.168;2023-08-06T04:08:43;16.60;;;8.85;;
59147;SDS011;44930;52.878;6.168;2023-08-06T04:11:09;12.45;;;8.60;;
59147;SDS011;44930;52.878;6.168;2023-08-06T04:13:34;9.35;;;8.18;;
59147;SDS011;44930;52.878;6.168;2023-08-06T04:16:01;13.23;;;9.65;;
59147;SDS011;44930;52.878;6.168;2023-08-06T04:18:27;13.52;;;9.05;;
59147;SDS011;44930;52.878;6.168;2023-08-06T04:20:53;12.23;;;9.68;;
59147;SDS011;44930;52.878;6.168;2023-08-06T04:23:20;10.80;;;9.13;;
59147;SDS011;44930;52.878;6.168;2023-08-06T04:25:45;12.48;;;9.20;;
59147;SDS011;44930;52.878;6.168;2023-08-06T04:28:11;13.50;;;9.18;;
59147;SDS011;44930;52.878;6.168;2023-08-06T04:30:37;11.15;;;9.77;;
59147;SDS011;44930;52.878;6.168;2023-08-06T04:33:03;11.70;;;9.80;;
59147;SDS011;44930;52.878;6.168;2023-08-06T04:35:28;13.18;;;10.07;;
59147;SDS011;44930;52.878;6.168;2023-08-06T04:37:54;12.82;;;9.65;;
59147;SDS011;44930;52.878;6.168;2023-08-06T04:40:19;15.80;;;9.68;;
59147;SDS011;44930;52.878;6.168;2023-08-06T04:42:45;10.52;;;9.40;;
59147;SDS011;44930;52.878;6.168;2023-08-06T04:45:10;11.10;;;9.60;;
59147;SDS011;44930;52.878;6.168;2023-08-06T04:47:36;15.60;;;9.93;;
59147;SDS011;44930;52.878;6.168;2023-08-06T04:50:02;9.77;;;8.77;;
59147;SDS011;44930;52.878;6.168;2023-08-06T04:52:27;11.15;;;9.95;;
59147;SDS011;44930;52.878;6.168;2023-08-06T04:54:54;13.93;;;9.80;;
59147;SDS011;44930;52.878;6.168;2023-08-06T04:57:19;11.98;;;9.70;;
59147;SDS011;44930;52.878;6.168;2023-08-06T04:59:45;14.15;;;10.00;;
59147;SDS011;44930;52.878;6.168;2023-08-06T05:02:11;14.82;;;10.18;;
59147;SDS011;44930;52.878;6.168;2023-08-06T05:04:37;12.32;;;9.45;;
59147;SDS011;44930;52.878;6.168;2023-08-06T05:07:02;11.85;;;9.43;;
59147;SDS011;44930;52.878;6.168;2023-08-06T05:09:28;10.57;;;9.45;;
59147;SDS011;44930;52.878;6.168;2023-08-06T05:11:54;12.77;;;10.45;;
59147;SDS011;44930;52.878;6.168;2023-08-06T05:14:19;10.98;;;9.00;;
59147;SDS011;44930;52.878;6.168;2023-08-06T05:16:45;12.00;;;9.32;;
59147;SDS011;44930;52.878;6.168;2023-08-06T05:19:11;12.95;;;9.98;;
59147;SDS011;44930;52.878;6.168;2023-08-06T05:21:36;14.50;;;9.88;;
59147;SDS011;44930;52.878;6.168;2023-08-06T05:24:02;11.45;;;9.30;;
59147;SDS011;44930;52.878;6.168;2023-08-06T05:26:27;15.48;;;10.15;;
59147;SDS011;44930;52.878;6.168;2023-08-06T05:28:53;10.30;;;9.20;;
59147;SDS011;44930;52.878;6.168;2023-08-06T05:31:19;13.68;;;9.65;;
59147;SDS011;44930;52.878;6.168;2023-08-06T05:33:45;12.25;;;10.13;;
59147;SDS011;44930;52.878;6.168;2023-08-06T05:36:10;15.93;;;10.82;;
59147;SDS011;44930;52.878;6.168;2023-08-06T05:38:36;17.42;;;10.48;;
59147;SDS011;44930;52.878;6.168;2023-08-06T05:41:01;13.45;;;10.70;;
59147;SDS011;44930;52.878;6.168;2023-08-06T05:43:27;13.55;;;10.00;;
59147;SDS011;44930;52.878;6.168;2023-08-06T05:45:53;14.82;;;10.73;;
59147;SDS011;44930;52.878;6.168;2023-08-06T05:48:18;17.33;;;11.40;;
59147;SDS011;44930;52.878;6.168;2023-08-06T05:50:44;14.68;;;11.18;;
59147;SDS011;44930;52.878;6.168;2023-08-06T05:53:09;11.60;;;10.18;;
59147;SDS011;44930;52.878;6.168;2023-08-06T05:55:35;12.70;;;10.93;;
59147;SDS011;44930;52.878;6.168;2023-08-06T05:58:01;14.93;;;11.48;;
59147;SDS011;44930;52.878;6.168;2023-08-06T06:00:27;13.82;;;11.75;;
59147;SDS011;44930;52.878;6.168;2023-08-06T06:02:52;14.93;;;11.98;;
59147;SDS011;44930;52.878;6.168;2023-08-06T06:05:18;13.88;;;11.63;;
59147;SDS011;44930;52.878;6.168;2023-08-06T06:07:44;12.35;;;10.82;;
59147;SDS011;44930;52.878;6.168;2023-08-06T06:10:09;13.23;;;11.93;;
59147;SDS011;44930;52.878;6.168;2023-08-06T06:12:35;13.02;;;10.73;;
59147;SDS011;44930;52.878;6.168;2023-08-06T06:15:00;12.23;;;10.93;;
59147;SDS011;44930;52.878;6.168;2023-08-06T06:17:26;13.05;;;10.68;;
59147;SDS011;44930;52.878;6.168;2023-08-06T06:19:52;13.52;;;10.77;;
59147;SDS011;44930;52.878;6.168;2023-08-06T06:22:18;14.63;;;10.77;;
59147;SDS011;44930;52.878;6.168;2023-08-06T06:24:44;15.50;;;10.63;;
59147;SDS011;44930;52.878;6.168;2023-08-06T06:27:09;14.25;;;11.40;;
59147;SDS011;44930;52.878;6.168;2023-08-06T06:29:35;11.43;;;10.25;;
59147;SDS011;44930;52.878;6.168;2023-08-06T06:32:01;13.07;;;10.70;;
59147;SDS011;44930;52.878;6.168;2023-08-06T06:34:26;15.63;;;10.93;;
59147;SDS011;44930;52.878;6.168;2023-08-06T06:36:52;15.25;;;10.93;;
59147;SDS011;44930;52.878;6.168;2023-08-06T06:39:17;13.23;;;11.07;;
59147;SDS011;44930;52.878;6.168;2023-08-06T06:41:43;11.57;;;9.70;;
59147;SDS011;44930;52.878;6.168;2023-08-06T06:44:09;15.50;;;11.27;;
59147;SDS011;44930;52.878;6.168;2023-08-06T06:46:35;11.23;;;9.90;;
59147;SDS011;44930;52.878;6.168;2023-08-06T06:49:00;13.07;;;10.95;;
59147;SDS011;44930;52.878;6.168;2023-08-06T06:51:26;11.57;;;10.25;;
59147;SDS011;44930;52.878;6.168;2023-08-06T06:53:52;16.50;;;10.80;;
59147;SDS011;44930;52.878;6.168;2023-08-06T06:56:17;10.80;;;9.55;;
59147;SDS011;44930;52.878;6.168;2023-08-06T06:58:43;13.73;;;10.05;;
59147;SDS011;44930;52.878;6.168;2023-08-06T07:01:09;12.88;;;9.18;;
59147;SDS011;44930;52.878;6.168;2023-08-06T07:03:36;14.43;;;10.13;;
59147;SDS011;44930;52.878;6.168;2023-08-06T07:06:02;12.70;;;10.60;;
59147;SDS011;44930;52.878;6.168;2023-08-06T07:08:28;14.82;;;9.95;;
59147;SDS011;44930;52.878;6.168;2023-08-06T07:11:03;12.07;;;10.88;;
59147;SDS011;44930;52.878;6.168;2023-08-06T07:13:31;10.90;;;9.77;;
59147;SDS011;44930;52.878;6.168;2023-08-06T07:15:57;11.38;;;9.38;;
59147;SDS011;44930;52.878;6.168;2023-08-06T07:18:23;10.85;;;9.82;;
59147;SDS011;44930;52.878;6.168;2023-08-06T07:20:50;15.45;;;10.50;;
59147;SDS011;44930;52.878;6.168;2023-08-06T07:23:17;13.13;;;10.68;;
59147;SDS011;44930;52.878;6.168;2023-08-06T07:25:46;11.02;;;9.93;;
59147;SDS011;44930;52.878;6.168;2023-08-06T07:28:12;11.48;;;10.40;;
59147;SDS011;44930;52.878;6.168;2023-08-06T07:30:39;11.50;;;10.35;;
59147;SDS011;44930;52.878;6.168;2023-08-06T07:33:05;12.75;;;10.60;;
59147;SDS011;44930;52.878;6.168;2023-08-06T07:35:31;11.75;;;10.45;;
59147;SDS011;44930;52.878;6.168;2023-08-06T07:37:57;12.93;;;11.20;;
59147;SDS011;44930;52.878;6.168;2023-08-06T07:40:22;13.10;;;11.68;;
59147;SDS011;44930;52.878;6.168;2023-08-06T07:42:48;13.32;;;11.98;;
59147;SDS011;44930;52.878;6.168;2023-08-06T07:45:13;13.05;;;11.65;;
59147;SDS011;44930;52.878;6.168;2023-08-06T07:47:39;12.35;;;11.15;;
59147;SDS011;44930;52.878;6.168;2023-08-06T07:50:05;13.43;;;11.05;;
59147;SDS011;44930;52.878;6.168;2023-08-06T07:52:31;13.48;;;11.85;;
59147;SDS011;44930;52.878;6.168;2023-08-06T07:54:57;14.35;;;12.80;;
59147;SDS011;44930;52.878;6.168;2023-08-06T07:57:23;14.13;;;12.02;;
59147;SDS011;44930;52.878;6.168;2023-08-06T07:59:49;13.85;;;12.02;;
59147;SDS011;44930;52.878;6.168;2023-08-06T08:02:15;13.20;;;11.82;;
59147;SDS011;44930;52.878;6.168;2023-08-06T08:04:40;14.52;;;11.63;;
59147;SDS011;44930;52.878;6.168;2023-08-06T08:07:06;12.57;;;11.27;;
59147;SDS011;44930;52.878;6.168;2023-08-06T08:09:32;12.93;;;11.32;;
59147;SDS011;44930;52.878;6.168;2023-08-06T08:11:59;17.13;;;14.15;;
59147;SDS011;44930;52.878;6.168;2023-08-06T08:14:27;15.27;;;13.77;;
59147;SDS011;44930;52.878;6.168;2023-08-06T08:16:54;17.25;;;12.82;;
59147;SDS011;44930;52.878;6.168;2023-08-06T08:19:19;14.68;;;12.15;;
59147;SDS011;44930;52.878;6.168;2023-08-06T08:21:46;14.38;;;12.90;;
59147;SDS011;44930;52.878;6.168;2023-08-06T08:24:11;14.15;;;12.52;;
59147;SDS011;44930;52.878;6.168;2023-08-06T08:26:37;14.20;;;12.70;;
59147;SDS011;44930;52.878;6.168;2023-08-06T08:29:02;15.93;;;12.90;;
59147;SDS011;44930;52.878;6.168;2023-08-06T08:31:28;15.45;;;12.65;;
59147;SDS011;44930;52.878;6.168;2023-08-06T08:33:54;14.98;;;13.43;;
59147;SDS011;44930;52.878;6.168;2023-08-06T08:36:20;15.85;;;14.32;;
59147;SDS011;44930;52.878;6.168;2023-08-06T08:38:46;15.50;;;13.90;;
59147;SDS011;44930;52.878;6.168;2023-08-06T08:41:11;14.00;;;12.63;;
59147;SDS011;44930;52.878;6.168;2023-08-06T08:43:37;16.75;;;13.02;;
59147;SDS011;44930;52.878;6.168;2023-08-06T08:46:03;14.45;;;13.05;;
59147;SDS011;44930;52.878;6.168;2023-08-06T08:48:30;13.77;;;12.38;;
59147;SDS011;44930;52.878;6.168;2023-08-06T08:50:56;13.38;;;12.07;;
59147;SDS011;44930;52.878;6.168;2023-08-06T08:53:22;10.95;;;9.85;;
59147;SDS011;44930;52.878;6.168;2023-08-06T08:55:48;12.63;;;11.32;;
59147;SDS011;44930;52.878;6.168;2023-08-06T08:58:15;13.63;;;12.32;;
59147;SDS011;44930;52.878;6.168;2023-08-06T09:00:41;14.65;;;13.18;;
59147;SDS011;44930;52.878;6.168;2023-08-06T09:03:07;12.90;;;11.60;;
59147;SDS011;44930;52.878;6.168;2023-08-06T09:05:33;15.38;;;12.65;;
59147;SDS011;44930;52.878;6.168;2023-08-06T09:08:01;15.60;;;13.00;;
59147;SDS011;44930;52.878;6.168;2023-08-06T09:10:28;13.73;;;12.43;;
59147;SDS011;44930;52.878;6.168;2023-08-06T09:12:55;15.95;;;13.02;;
59147;SDS011;44930;52.878;6.168;2023-08-06T09:15:24;13.32;;;12.07;;
59147;SDS011;44930;52.878;6.168;2023-08-06T09:17:51;12.18;;;11.02;;
59147;SDS011;44930;52.878;6.168;2023-08-06T09:20:17;13.48;;;12.18;;
59147;SDS011;44930;52.878;6.168;2023-08-06T09:22:43;13.73;;;11.70;;
59147;SDS011;44930;52.878;6.168;2023-08-06T09:25:10;12.98;;;11.68;;
59147;SDS011;44930;52.878;6.168;2023-08-06T09:27:36;11.82;;;10.05;;
59147;SDS011;44930;52.878;6.168;2023-08-06T09:30:03;10.82;;;9.70;;
59147;SDS011;44930;52.878;6.168;2023-08-06T09:32:44;11.00;;;9.13;;
59147;SDS011;44930;52.878;6.168;2023-08-06T09:35:15;11.38;;;9.70;;
59147;SDS011;44930;52.878;6.168;2023-08-06T09:37:42;10.82;;;9.52;;
59147;SDS011;44930;52.878;6.168;2023-08-06T09:42:55;9.65;;;8.65;;
59147;SDS011;44930;52.878;6.168;2023-08-06T09:45:21;9.95;;;8.20;;
59147;SDS011;44930;52.878;6.168;2023-08-06T09:47:48;10.27;;;7.82;;
59147;SDS011;44930;52.878;6.168;2023-08-06T09:50:20;8.95;;;7.82;;
59147;SDS011;44930;52.878;6.168;2023-08-06T09:52:46;8.20;;;7.40;;
59147;SDS011;44930;52.878;6.168;2023-08-06T09:55:15;7.53;;;6.72;;
59147;SDS011;44930;52.878;6.168;2023-08-06T09:57:41;8.57;;;7.22;;
59147;SDS011;44930;52.878;6.168;2023-08-06T10:00:08;7.22;;;6.50;;
59147;SDS011;44930;52.878;6.168;2023-08-06T10:02:39;9.23;;;6.78;;
59147;SDS011;44930;52.878;6.168;2023-08-06T10:05:05;7.78;;;6.20;;
59147;SDS011;44930;52.878;6.168;2023-08-06T10:07:35;10.88;;;6.82;;
59147;SDS011;44930;52.878;6.168;2023-08-06T10:10:00;9.75;;;6.53;;
59147;SDS011;44930;52.878;6.168;2023-08-06T10:12:28;6.72;;;5.38;;
59147;SDS011;44930;52.878;6.168;2023-08-06T10:14:57;6.38;;;5.40;;
59147;SDS011;44930;52.878;6.168;2023-08-06T10:17:26;7.47;;;5.40;;
59147;SDS011;44930;52.878;6.168;2023-08-06T10:19:52;5.88;;;5.35;;
59147;SDS011;44930;52.878;6.168;2023-08-06T10:22:20;8.13;;;5.00;;
59147;SDS011;44930;52.878;6.168;2023-08-06T10:24:50;6.95;;;4.93;;
59147;SDS011;44930;52.878;6.168;2023-08-06T10:30:30;7.88;;;4.95;;
59147;SDS011;44930;52.878;6.168;2023-08-06T10:32:59;5.78;;;4.72;;
59147;SDS011;44930;52.878;6.168;2023-08-06T10:38:08;5.28;;;4.78;;
59147;SDS011;44930;52.878;6.168;2023-08-06T10:41:00;5.00;;;4.50;;
59147;SDS011;44930;52.878;6.168;2023-08-06T10:43:28;7.00;;;4.45;;
59147;SDS011;44930;52.878;6.168;2023-08-06T10:45:55;5.05;;;4.10;;
59147;SDS011;44930;52.878;6.168;2023-08-06T10:48:28;5.22;;;4.28;;
59147;SDS011;44930;52.878;6.168;2023-08-06T10:50:55;5.57;;;4.55;;
59147;SDS011;44930;52.878;6.168;2023-08-06T10:53:21;4.30;;;3.90;;
59147;SDS011;44930;52.878;6.168;2023-08-06T10:55:47;4.88;;;4.38;;
59147;SDS011;44930;52.878;6.168;2023-08-06T10:58:14;7.03;;;4.53;;
59147;SDS011;44930;52.878;6.168;2023-08-06T11:00:40;4.15;;;3.75;;
59147;SDS011;44930;52.878;6.168;2023-08-06T11:03:07;5.40;;;4.65;;
59147;SDS011;44930;52.878;6.168;2023-08-06T11:05:33;3.95;;;3.08;;
59147;SDS011;44930;52.878;6.168;2023-08-06T11:07:59;4.93;;;3.60;;
59147;SDS011;44930;52.878;6.168;2023-08-06T11:10:25;4.70;;;3.85;;
59147;SDS011;44930;52.878;6.168;2023-08-06T11:12:51;8.02;;;3.50;;
59147;SDS011;44930;52.878;6.168;2023-08-06T11:15:16;4.07;;;3.30;;
59147;SDS011;44930;52.878;6.168;2023-08-06T11:17:42;4.75;;;3.55;;
59147;SDS011;44930;52.878;6.168;2023-08-06T11:20:08;5.65;;;3.15;;
59147;SDS011;44930;52.878;6.168;2023-08-06T11:22:35;4.13;;;3.33;;
59147;SDS011;44930;52.878;6.168;2023-08-06T11:25:01;3.72;;;3.22;;
59147;SDS011;44930;52.878;6.168;2023-08-06T11:27:27;8.23;;;3.13;;
59147;SDS011;44930;52.878;6.168;2023-08-06T11:29:54;3.42;;;3.08;;
59147;SDS011;44930;52.878;6.168;2023-08-06T11:32:19;4.10;;;3.10;;
59147;SDS011;44930;52.878;6.168;2023-08-06T11:34:45;3.92;;;2.90;;
59147;SDS011;44930;52.878;6.168;2023-08-06T11:37:10;4.32;;;2.92;;
59147;SDS011;44930;52.878;6.168;2023-08-06T11:39:36;3.35;;;2.65;;
59147;SDS011;44930;52.878;6.168;2023-08-06T11:42:03;4.07;;;2.80;;
59147;SDS011;44930;52.878;6.168;2023-08-06T11:44:36;2.85;;;2.33;;
59147;SDS011;44930;52.878;6.168;2023-08-06T11:47:05;3.17;;;2.05;;
59147;SDS011;44930;52.878;6.168;2023-08-06T11:49:40;3.22;;;2.45;;
59147;SDS011;44930;52.878;6.168;2023-08-06T11:52:31;3.03;;;2.17;;
59147;SDS011;44930;52.878;6.168;2023-08-06T11:55:04;3.20;;;1.70;;
59147;SDS011;44930;52.878;6.168;2023-08-06T11:57:33;3.95;;;2.38;;
59147;SDS011;44930;52.878;6.168;2023-08-06T12:00:06;2.63;;;1.63;;
59147;SDS011;44930;52.878;6.168;2023-08-06T12:02:34;4.45;;;2.15;;
59147;SDS011;44930;52.878;6.168;2023-08-06T12:05:09;3.30;;;1.83;;
59147;SDS011;44930;52.878;6.168;2023-08-06T12:07:37;8.00;;;2.60;;
59147;SDS011;44930;52.878;6.168;2023-08-06T12:10:03;4.55;;;2.25;;
59147;SDS011;44930;52.878;6.168;2023-08-06T12:12:29;4.97;;;2.25;;
59147;SDS011;44930;52.878;6.168;2023-08-06T12:14:55;2.92;;;2.25;;
59147;SDS011;44930;52.878;6.168;2023-08-06T12:17:21;2.83;;;2.03;;
59147;SDS011;44930;52.878;6.168;2023-08-06T12:19:48;5.15;;;2.67;;
59147;SDS011;44930;52.878;6.168;2023-08-06T12:22:14;4.65;;;2.13;;
59147;SDS011;44930;52.878;6.168;2023-08-06T12:24:43;4.78;;;2.30;;
59147;SDS011;44930;52.878;6.168;2023-08-06T12:27:09;5.20;;;2.35;;
59147;SDS011;44930;52.878;6.168;2023-08-06T12:29:36;7.35;;;2.40;;
59147;SDS011;44930;52.878;6.168;2023-08-06T12:32:05;3.05;;;2.20;;
59147;SDS011;44930;52.878;6.168;2023-08-06T12:34:31;4.60;;;2.17;;
59147;SDS011;44930;52.878;6.168;2023-08-06T12:36:56;4.10;;;2.40;;
59147;SDS011;44930;52.878;6.168;2023-08-06T12:39:22;4.30;;;2.13;;
59147;SDS011;44930;52.878;6.168;2023-08-06T12:41:47;3.10;;;2.28;;
59147;SDS011;44930;52.878;6.168;2023-08-06T12:44:13;5.55;;;2.38;;
59147;SDS011;44930;52.878;6.168;2023-08-06T12:46:39;2.90;;;1.90;;
59147;SDS011;44930;52.878;6.168;2023-08-06T12:49:05;4.55;;;2.70;;
59147;SDS011;44930;52.878;6.168;2023-08-06T12:51:31;6.20;;;3.05;;
59147;SDS011;44930;52.878;6.168;2023-08-06T12:53:58;3.30;;;2.58;;
59147;SDS011;44930;52.878;6.168;2023-08-06T12:56:24;6.40;;;3.15;;
59147;SDS011;44930;52.878;6.168;2023-08-06T12:58:50;5.18;;;3.25;;
59147;SDS011;44930;52.878;6.168;2023-08-06T13:01:15;5.55;;;2.95;;
59147;SDS011;44930;52.878;6.168;2023-08-06T13:03:41;6.20;;;2.60;;
59147;SDS011;44930;52.878;6.168;2023-08-06T13:06:06;4.03;;;2.53;;
59147;SDS011;44930;52.878;6.168;2023-08-06T13:08:34;4.22;;;2.95;;
59147;SDS011;44930;52.878;6.168;2023-08-06T13:11:00;7.05;;;3.42;;
59147;SDS011;44930;52.878;6.168;2023-08-06T13:13:26;3.58;;;2.70;;
59147;SDS011;44930;52.878;6.168;2023-08-06T13:15:52;5.88;;;2.70;;
59147;SDS011;44930;52.878;6.168;2023-08-06T13:18:17;5.15;;;2.88;;
59147;SDS011;44930;52.878;6.168;2023-08-06T13:20:43;4.68;;;2.83;;
59147;SDS011;44930;52.878;6.168;2023-08-06T13:23:09;4.78;;;2.80;;
59147;SDS011;44930;52.878;6.168;2023-08-06T13:25:34;4.45;;;3.08;;
59147;SDS011;44930;52.878;6.168;2023-08-06T13:28:04;3.50;;;2.42;;
59147;SDS011;44930;52.878;6.168;2023-08-06T13:30:30;2.50;;;2.00;;
59147;SDS011;44930;52.878;6.168;2023-08-06T13:32:56;4.20;;;2.40;;
59147;SDS011;44930;52.878;6.168;2023-08-06T13:35:22;3.22;;;2.13;;
59147;SDS011;44930;52.878;6.168;2023-08-06T13:37:48;4.47;;;2.45;;
59147;SDS011;44930;52.878;6.168;2023-08-06T13:40:14;3.40;;;2.30;;
59147;SDS011;44930;52.878;6.168;2023-08-06T13:42:39;3.83;;;2.20;;
59147;SDS011;44930;52.878;6.168;2023-08-06T13:45:05;3.55;;;2.90;;
59147;SDS011;44930;52.878;6.168;2023-08-06T13:47:31;4.25;;;2.80;;
59147;SDS011;44930;52.878;6.168;2023-08-06T13:49:57;5.43;;;2.80;;
59147;SDS011;44930;52.878;6.168;2023-08-06T13:52:25;5.95;;;3.15;;
59147;SDS011;44930;52.878;6.168;2023-08-06T13:54:51;6.60;;;3.63;;
59147;SDS011;44930;52.878;6.168;2023-08-06T13:57:17;7.78;;;3.60;;
59147;SDS011;44930;52.878;6.168;2023-08-06T13:59:43;5.47;;;3.40;;
59147;SDS011;44930;52.878;6.168;2023-08-06T14:02:09;5.95;;;4.38;;
59147;SDS011;44930;52.878;6.168;2023-08-06T14:04:35;4.72;;;3.72;;
59147;SDS011;44930;52.878;6.168;2023-08-06T14:07:02;7.13;;;3.88;;
59147;SDS011;44930;52.878;6.168;2023-08-06T14:09:28;6.15;;;4.13;;
59147;SDS011;44930;52.878;6.168;2023-08-06T14:11:54;8.00;;;5.00;;
59147;SDS011;44930;52.878;6.168;2023-08-06T14:14:19;4.82;;;4.18;;
59147;SDS011;44930;52.878;6.168;2023-08-06T14:16:50;7.05;;;4.70;;
59147;SDS011;44930;52.878;6.168;2023-08-06T14:19:16;13.10;;;5.72;;
59147;SDS011;44930;52.878;6.168;2023-08-06T14:21:42;11.75;;;4.68;;
59147;SDS011;44930;52.878;6.168;2023-08-06T14:24:08;9.23;;;4.97;;
59147;SDS011;44930;52.878;6.168;2023-08-06T14:26:33;7.68;;;4.85;;
59147;SDS011;44930;52.878;6.168;2023-08-06T14:29:00;9.25;;;6.18;;
59147;SDS011;44930;52.878;6.168;2023-08-06T14:31:25;8.25;;;6.13;;
59147;SDS011;44930;52.878;6.168;2023-08-06T14:33:51;11.18;;;6.93;;
59147;SDS011;44930;52.878;6.168;2023-08-06T14:36:17;10.50;;;7.72;;
59147;SDS011;44930;52.878;6.168;2023-08-06T14:38:42;10.45;;;8.13;;
59147;SDS011;44930;52.878;6.168;2023-08-06T14:41:08;13.45;;;8.10;;
59147;SDS011;44930;52.878;6.168;2023-08-06T14:43:33;13.32;;;9.38;;